KDGW/DGW METAR and TAF weather

Enter ICAO airport designator
Station Type Date Time Source
KDGW METAR 2019/08/19 22:53 UTC NOAA

KDGW 192253Z AUTO 27013G21KT 10SM CLR 36/M04 A3001 RMK AO2 SLP096 T03611039 $


Station Type Date Time Source
KDGW Decoded METAR 2019/08/19 22:53 UTC NOAA

DOUGLAS CONVERSE COUNTY, WY, United States (KDGW) 42-48N 105-23W 1499M
Aug 19, 2019 - 06:53 PM EDT / 2019.08.19 2253 UTC
Wind: from the W (270 degrees) at 15 MPH (13 KT) gusting to 24 MPH (21 KT):0
Visibility: 10 mile(s):0
Sky conditions: clear
Temperature: 97.0 F (36.1 C)
Dew Point: 25.0 F (-3.9 C)
Relative Humidity: 7%
Pressure (altimeter): 30.01 in. Hg (1016 hPa)
ob: KDGW 192253Z AUTO 27013G21KT 10SM CLR 36/M04 A3001 RMK AO2 SLP096 T03611039
cycle: 23

Station Type Date Time Source
KDGW TAF UTC NOAA

Error!

Example: see airport list